Time;durP1;ratioP1;P1;durP2;ratioP2;P2;SDS_P1;SDS_P2;PMS_P1;PMS_P2;Temp;Humidity;BMP_temperature;BMP_pressure;BME280_temperature;BME280_humidity;BME280_pressure;Samples;Min_cycle;Max_cycle;Signal;HPM_P1;HPM_P2
2022/12/08 00:01:14;;;;;;;0.85;0.82;;;2.20;99.90;;;;;;5061489;28;20198;-72
2022/12/08 00:03:42;;;;;;;3.45;2.97;;;2.10;99.90;;;;;;5056197;28;20203;-72
2022/12/08 00:09:22;;;;;;;1.10;0.93;;;2.10;99.90;;;;;;5054879;28;20203;-72
2022/12/08 00:11:55;;;;;;;3.35;1.48;;;2.10;99.90;;;;;;5066495;28;20234;-72
2022/12/08 00:14:25;;;;;;;1.55;1.25;;;2.10;99.90;;;;;;5049040;28;20208;-72
2022/12/08 00:16:52;;;;;;;1.50;1.42;;;2.00;99.90;;;;;;5052596;28;20560;-72
2022/12/08 00:19:19;;;;;;;2.22;1.40;;;2.00;99.90;;;;;;5057458;28;20208;-71
2022/12/08 00:21:47;;;;;;;1.35;1.23;;;1.90;99.90;;;;;;5058964;28;20208;-72
2022/12/08 00:24:14;;;;;;;0.60;0.60;;;1.90;99.90;;;;;;5049772;28;20196;-70
2022/12/08 00:26:41;;;;;;;1.42;1.20;;;1.80;99.90;;;;;;5061534;28;20257;-72
2022/12/08 00:29:08;;;;;;;1.20;1.20;;;1.60;99.90;;;;;;5048399;28;20200;-71
2022/12/08 00:31:35;;;;;;;0.98;0.50;;;1.60;99.90;;;;;;5061423;28;20233;-73
2022/12/08 00:34:02;;;;;;;1.55;1.23;;;1.50;99.90;;;;;;5060902;28;20203;-71
2022/12/08 00:36:29;;;;;;;1.23;1.13;;;1.40;99.90;;;;;;5062896;28;20569;-72
2022/12/08 00:38:58;;;;;;;1.23;1.13;;;1.30;99.90;;;;;;5057268;28;20208;-71
2022/12/08 00:44:07;;;;;;;1.52;1.00;;;1.30;99.90;;;;;;5047649;28;20196;-71
2022/12/08 00:46:34;;;;;;;1.13;1.10;;;1.20;99.90;;;;;;5063950;28;20901;-72
2022/12/08 00:49:01;;;;;;;1.27;1.25;;;1.20;99.90;;;;;;5065773;28;20210;-72
2022/12/08 00:51:27;;;;;;;1.13;1.13;;;1.00;99.90;;;;;;5051980;28;20219;-72
2022/12/08 00:53:54;;;;;;;2.25;1.20;;;1.00;99.90;;;;;;5065194;28;20207;-72
2022/12/08 00:56:23;;;;;;;2.60;1.92;;;1.10;99.90;;;;;;5067678;28;20561;-71
2022/12/08 00:58:50;;;;;;;1.98;1.42;;;1.00;99.90;;;;;;5050063;28;20196;-71
2022/12/08 01:01:17;;;;;;;1.70;0.77;;;0.90;99.90;;;;;;5064799;28;20203;-71
2022/12/08 01:03:44;;;;;;;1.15;1.02;;;0.80;99.90;;;;;;5052406;28;20273;-71
2022/12/08 01:06:11;;;;;;;3.30;1.30;;;0.80;99.90;;;;;;5047668;28;20215;-71
2022/12/08 01:08:38;;;;;;;2.72;2.45;;;0.70;99.90;;;;;;5052214;28;20202;-71
2022/12/08 01:11:06;;;;;;;1.60;1.50;;;0.70;99.90;;;;;;5055025;28;20230;-71
2022/12/08 01:13:34;;;;;;;0.77;0.77;;;0.60;99.90;;;;;;5058927;28;20199;-71
2022/12/08 01:16:01;;;;;;;1.92;1.08;;;0.70;99.90;;;;;;5067519;28;20190;-71
2022/12/08 01:18:29;;;;;;;0.40;0.40;;;0.70;99.90;;;;;;5062536;28;20313;-72
2022/12/08 01:20:55;;;;;;;1.48;1.17;;;0.70;99.90;;;;;;5049032;28;20226;-72
2022/12/08 01:23:22;;;;;;;1.90;1.80;;;0.70;99.90;;;;;;5057202;28;20204;-72
2022/12/08 01:25:49;;;;;;;2.20;2.00;;;0.70;99.90;;;;;;5051388;28;20196;-72
2022/12/08 01:28:16;;;;;;;1.58;1.08;;;0.60;99.90;;;;;;5052001;28;20210;-72
2022/12/08 01:30:44;;;;;;;3.05;2.38;;;0.50;99.90;;;;;;5064891;28;20222;-72
2022/12/08 01:33:11;;;;;;;0.73;0.73;;;0.50;99.90;;;;;;5057612;28;20229;-72
2022/12/08 01:35:39;;;;;;;6.10;1.73;;;0.50;99.90;;;;;;5058532;28;20205;-72
2022/12/08 01:38:06;;;;;;;1.45;1.35;;;0.50;99.90;;;;;;5049796;28;20348;-72
2022/12/08 01:40:32;;;;;;;2.25;1.35;;;0.50;99.90;;;;;;5048136;28;20199;-72
2022/12/08 01:42:59;;;;;;;1.30;0.60;;;0.50;99.90;;;;;;5054659;28;20203;-73
2022/12/08 01:45:28;;;;;;;1.55;1.45;;;0.60;99.90;;;;;;5049608;28;20205;-71
2022/12/08 01:47:58;;;;;;;6.25;3.63;;;0.40;99.90;;;;;;5066556;28;20197;-71
2022/12/08 01:50:26;;;;;;;2.60;2.40;;;0.40;99.90;;;;;;5049753;28;20206;-71
2022/12/08 01:52:57;;;;;;;2.25;1.40;;;0.40;99.90;;;;;;5050484;28;20199;-71
2022/12/08 01:55:30;;;;;;;0.85;0.85;;;0.40;99.90;;;;;;5064847;28;20221;-71
2022/12/08 01:58:02;;;;;;;1.25;0.75;;;0.40;99.90;;;;;;5056729;28;20211;-71
2022/12/08 02:00:28;;;;;;;3.75;1.85;;;0.40;99.90;;;;;;5062220;28;20193;-72
2022/12/08 02:02:59;;;;;;;0.55;0.55;;;0.40;99.90;;;;;;5046637;28;20200;-71
2022/12/08 02:05:28;;;;;;;2.75;1.67;;;0.40;99.90;;;;;;5045378;28;20196;-72
2022/12/08 02:07:57;;;;;;;0.90;0.90;;;0.40;99.90;;;;;;5053209;28;20194;-72
2022/12/08 02:10:28;;;;;;;1.40;1.30;;;0.40;99.90;;;;;;5056179;28;20286;-72
2022/12/08 02:12:58;;;;;;;0.95;0.95;;;0.40;99.90;;;;;;5056921;28;20571;-72
2022/12/08 02:15:36;;;;;;;0.80;0.80;;;0.50;99.90;;;;;;5067025;28;20207;-72
2022/12/08 02:18:20;;;;;;;1.20;1.10;;;0.40;99.90;;;;;;5054474;28;20786;-72
2022/12/08 02:20:56;;;;;;;2.47;1.77;;;-2.20;99.90;;;;;;5062473;28;20197;-71
2022/12/08 02:23:33;;;;;;;0.70;0.70;;;0.30;99.90;;;;;;5053471;28;20212;-71
2022/12/08 02:26:54;;;;;;;0.55;0.55;;;0.20;99.90;;;;;;5066163;28;20207;-71
2022/12/08 02:29:58;;;;;;;1.42;1.33;;;0.10;99.90;;;;;;4939632;28;20216;-71
2022/12/08 02:33:03;;;;;;;2.22;2.13;;;0.00;99.90;;;;;;5051742;28;20237;-71
2022/12/08 02:35:39;;;;;;;0.93;0.93;;;0.00;99.90;;;;;;5061090;28;20193;-72
2022/12/08 02:38:20;;;;;;;2.65;1.80;;;0.00;99.90;;;;;;5070192;28;20200;-72
2022/12/08 02:40:57;;;;;;;1.67;1.35;;;0.10;99.90;;;;;;5050119;28;20227;-71
2022/12/08 02:43:32;;;;;;;2.28;1.85;;;0.10;99.90;;;;;;5062318;28;20215;-72
2022/12/08 02:46:03;;;;;;;2.35;1.30;;;0.10;99.90;;;;;;5064936;28;20290;-71
2022/12/08 02:48:33;;;;;;;1.65;1.52;;;0.10;99.90;;;;;;5068319;28;20212;-72
2022/12/08 02:51:02;;;;;;;1.90;1.80;;;0.10;99.90;;;;;;5066724;28;20698;-72
2022/12/08 02:53:33;;;;;;;1.50;1.40;;;0.20;99.90;;;;;;5062524;28;20603;-71
2022/12/08 02:56:11;;;;;;;0.85;0.85;;;0.10;99.90;;;;;;5062643;28;20208;-71
2022/12/08 02:58:52;;;;;;;9.40;1.42;;;0.20;99.90;;;;;;5061206;28;20200;-70
2022/12/08 03:01:39;;;;;;;1.00;1.00;;;0.20;99.90;;;;;;5049414;28;20212;-70
2022/12/08 03:04:15;;;;;;;0.65;0.50;;;0.20;99.90;;;;;;5049625;28;20214;-72
2022/12/08 03:06:51;;;;;;;13.82;1.42;;;0.10;99.90;;;;;;5049798;28;20966;-71
2022/12/08 03:09:24;;;;;;;1.70;1.60;;;0.00;99.90;;;;;;5065727;28;20208;-72
2022/12/08 03:11:59;;;;;;;1.20;1.20;;;-0.10;99.90;;;;;;5070143;28;20723;-71
2022/12/08 03:14:27;;;;;;;0.52;0.52;;;-0.10;99.90;;;;;;5050876;28;20287;-71
2022/12/08 03:16:58;;;;;;;1.10;1.10;;;-0.10;99.90;;;;;;5053505;28;20667;-71
2022/12/08 03:19:28;;;;;;;1.40;1.05;;;-0.20;99.90;;;;;;5069037;28;20219;-71
2022/12/08 03:22:02;;;;;;;0.77;0.77;;;-0.30;99.90;;;;;;5063945;28;20212;-71
2022/12/08 03:24:32;;;;;;;8.02;1.73;;;-0.20;99.90;;;;;;5069025;28;20225;-71
2022/12/08 03:27:04;;;;;;;4.10;3.78;;;-0.40;99.90;;;;;;5056171;28;20206;-72
2022/12/08 03:29:33;;;;;;;0.88;0.70;;;-1.00;99.90;;;;;;5065597;28;20203;-71
2022/12/08 03:32:07;;;;;;;1.90;1.80;;;-0.40;99.90;;;;;;5052788;28;20936;-72
2022/12/08 03:34:36;;;;;;;0.68;0.68;;;-0.40;99.90;;;;;;5062530;28;20195;-71
2022/12/08 03:37:05;;;;;;;0.88;0.88;;;-0.40;99.90;;;;;;5066960;28;20564;-71
2022/12/08 03:39:33;;;;;;;1.55;1.15;;;-0.40;99.90;;;;;;5068008;28;20654;-72
2022/12/08 03:42:01;;;;;;;1.25;0.90;;;-0.30;99.90;;;;;;5069215;28;20210;-73
2022/12/08 03:44:29;;;;;;;2.75;1.85;;;-0.30;99.90;;;;;;5055925;28;20202;-72
2022/12/08 03:46:57;;;;;;;0.60;0.60;;;-0.30;99.90;;;;;;5049585;28;20208;-73
2022/12/08 03:49:24;;;;;;;0.40;0.40;;;-0.40;99.90;;;;;;5062897;28;20212;-70
2022/12/08 03:51:52;;;;;;;1.50;1.10;;;-0.40;99.90;;;;;;5067455;28;20707;-71
2022/12/08 03:54:23;;;;;;;2.88;1.60;;;-0.30;99.90;;;;;;5057526;28;20235;-71
2022/12/08 03:56:50;;;;;;;1.17;1.08;;;-0.40;99.90;;;;;;5068371;28;20709;-71
2022/12/08 03:59:18;;;;;;;2.15;1.75;;;-0.40;99.90;;;;;;5060708;28;20223;-71
2022/12/08 04:01:46;;;;;;;1.77;1.38;;;-0.40;99.90;;;;;;5067731;28;20279;-71
2022/12/08 04:04:14;;;;;;;2.25;1.95;;;-0.40;99.90;;;;;;5054130;28;20297;-71
2022/12/08 04:06:43;;;;;;;1.45;1.35;;;-0.50;99.90;;;;;;5052937;28;20209;-71
2022/12/08 04:09:11;;;;;;;1.65;1.60;;;-0.40;99.90;;;;;;5052910;28;20204;-71
2022/12/08 04:11:41;;;;;;;0.85;0.85;;;-0.40;99.90;;;;;;5068416;28;20236;-71
2022/12/08 04:14:08;;;;;;;3.50;1.73;;;-0.40;99.90;;;;;;5051432;28;20228;-71
2022/12/08 04:16:35;;;;;;;7.20;1.38;;;-0.40;99.90;;;;;;5050130;28;20206;-71
2022/12/08 04:19:02;;;;;;;2.95;2.75;;;-0.40;99.90;;;;;;5062589;28;20287;-71
2022/12/08 04:21:29;;;;;;;3.60;1.70;;;-0.40;99.90;;;;;;5047720;28;20200;-71
2022/12/08 04:23:56;;;;;;;2.95;2.67;;;-0.30;99.90;;;;;;5057762;28;20205;-71
2022/12/08 04:26:23;;;;;;;0.70;0.70;;;-0.30;99.90;;;;;;5060505;28;20195;-72
2022/12/08 04:28:51;;;;;;;1.92;1.83;;;-0.40;99.90;;;;;;5067111;28;20199;-71
2022/12/08 04:31:18;;;;;;;3.95;3.30;;;-0.50;99.90;;;;;;5067035;28;20222;-72
2022/12/08 04:33:45;;;;;;;0.40;0.30;;;-0.90;99.90;;;;;;5052110;28;20287;-72
2022/12/08 04:36:11;;;;;;;2.45;1.85;;;-0.60;99.90;;;;;;5067192;28;20203;-71
2022/12/08 04:38:38;;;;;;;4.72;1.77;;;-0.60;99.90;;;;;;5058837;28;20287;-71
2022/12/08 04:41:05;;;;;;;3.05;2.35;;;-0.60;99.90;;;;;;5052334;28;20202;-72
2022/12/08 04:43:32;;;;;;;2.08;1.80;;;-0.60;99.90;;;;;;5056692;28;20211;-71
2022/12/08 04:46:00;;;;;;;1.55;1.45;;;-0.70;99.90;;;;;;5047839;28;20686;-71
2022/12/08 04:48:27;;;;;;;0.75;0.75;;;-0.70;99.90;;;;;;5055874;28;20197;-71
2022/12/08 04:50:54;;;;;;;1.65;1.55;;;-0.80;99.90;;;;;;5066957;28;20191;-71
2022/12/08 04:53:21;;;;;;;0.60;0.45;;;;;;;;;;5053032;28;20233;-71
2022/12/08 04:55:48;;;;;;;2.17;0.85;;;-0.80;99.90;;;;;;5063500;28;20232;-72
2022/12/08 04:58:17;;;;;;;1.63;1.52;;;-0.80;99.90;;;;;;5066731;28;20549;-71
2022/12/08 05:00:44;;;;;;;0.98;0.98;;;-0.80;99.90;;;;;;5048883;28;20208;-71
2022/12/08 05:03:13;;;;;;;1.23;1.23;;;-0.60;99.90;;;;;;5048515;28;20197;-71
2022/12/08 05:05:41;;;;;;;1.58;1.48;;;-0.70;99.90;;;;;;5047590;28;20193;-71
2022/12/08 05:08:07;;;;;;;0.85;0.85;;;-0.80;99.90;;;;;;5057303;28;20204;-72
2022/12/08 05:10:34;;;;;;;0.50;0.50;;;-0.80;99.90;;;;;;5057846;28;20560;-71
2022/12/08 05:13:02;;;;;;;4.15;0.88;;;;;;;;;;5062963;28;20228;-71
2022/12/08 05:15:28;;;;;;;0.47;0.47;;;-0.80;99.90;;;;;;5064936;28;20227;-71
2022/12/08 05:17:55;;;;;;;0.73;0.73;;;-0.90;99.90;;;;;;5065331;28;20203;-71
2022/12/08 05:20:23;;;;;;;1.42;1.42;;;-0.90;99.90;;;;;;5067368;28;20216;-71
2022/12/08 05:22:50;;;;;;;3.10;3.00;;;-1.00;99.90;;;;;;5058922;28;20247;-70
2022/12/08 05:25:17;;;;;;;0.60;0.60;;;-1.00;99.90;;;;;;5050548;28;20204;-71
2022/12/08 05:27:44;;;;;;;3.50;1.83;;;-0.90;99.90;;;;;;5056584;28;20244;-70
2022/12/08 05:30:11;;;;;;;2.47;2.28;;;-0.90;99.90;;;;;;5058557;28;20200;-71
2022/12/08 05:32:38;;;;;;;1.45;1.45;;;-1.00;99.90;;;;;;5047111;28;20236;-71
2022/12/08 05:35:05;;;;;;;1.05;0.95;;;-1.00;99.90;;;;;;5056107;28;20195;-71
2022/12/08 05:37:34;;;;;;;1.15;0.95;;;-1.00;99.90;;;;;;5057941;28;20721;-71
2022/12/08 05:40:00;;;;;;;3.10;1.58;;;-1.10;99.90;;;;;;5047275;28;20199;-70
2022/12/08 05:42:27;;;;;;;1.33;1.23;;;-1.10;99.90;;;;;;5047196;28;20227;-71
2022/12/08 05:44:54;;;;;;;1.20;1.20;;;-1.20;99.90;;;;;;5047458;28;20211;-71
2022/12/08 05:47:21;;;;;;;1.25;1.25;;;-1.10;99.90;;;;;;5047269;28;20204;-70
2022/12/08 05:49:48;;;;;;;1.05;1.05;;;-1.10;99.90;;;;;;5063138;28;20199;-70
2022/12/08 05:52:15;;;;;;;0.43;0.43;;;-1.00;99.90;;;;;;5053498;28;20302;-70
2022/12/08 05:54:43;;;;;;;1.55;1.25;;;-1.10;99.90;;;;;;5050860;28;20200;-70
2022/12/08 05:57:10;;;;;;;1.67;1.58;;;-1.10;99.90;;;;;;5046874;28;20208;-71
2022/12/08 05:59:38;;;;;;;4.40;4.00;;;-1.10;99.90;;;;;;5051140;28;20203;-71
2022/12/08 06:02:05;;;;;;;1.50;1.40;;;-1.10;99.90;;;;;;5052423;28;20206;-71
2022/12/08 06:04:31;;;;;;;5.38;0.77;;;-1.20;99.90;;;;;;5060463;28;20200;-70
2022/12/08 06:06:58;;;;;;;1.63;1.58;;;-1.20;99.90;;;;;;5059898;28;20195;-71
2022/12/08 06:09:25;;;;;;;1.23;1.13;;;-1.20;99.90;;;;;;5054069;28;20204;-70
2022/12/08 06:11:53;;;;;;;0.40;0.40;;;-1.20;99.90;;;;;;5051476;28;20222;-70
2022/12/08 06:14:20;;;;;;;0.73;0.70;;;-1.20;99.90;;;;;;5063263;28;20192;-70
2022/12/08 06:16:47;;;;;;;3.15;1.15;;;-1.20;99.90;;;;;;5052771;28;20206;-72
2022/12/08 06:19:13;;;;;;;0.30;0.30;;;-1.20;99.90;;;;;;5066936;28;20200;-71
2022/12/08 06:21:41;;;;;;;1.42;1.33;;;;;;;;;;5050524;28;20680;-71
2022/12/08 06:24:08;;;;;;;2.20;2.03;;;-1.20;99.90;;;;;;5059472;28;20207;-71
2022/12/08 06:26:35;;;;;;;1.45;1.35;;;-1.20;99.90;;;;;;5069696;28;20561;-71
2022/12/08 06:29:03;;;;;;;2.13;2.03;;;-1.20;99.90;;;;;;5069707;28;20198;-71
2022/12/08 06:31:30;;;;;;;3.60;1.20;;;-1.20;99.90;;;;;;5070298;28;20199;-71
2022/12/08 06:33:57;;;;;;;0.88;0.88;;;-1.10;99.90;;;;;;5055679;28;20283;-72
2022/12/08 06:36:26;;;;;;;1.10;0.80;;;-1.10;99.90;;;;;;5066592;28;20269;-72
2022/12/08 06:38:53;;;;;;;1.80;1.70;;;;;;;;;;5054933;28;20192;-71
2022/12/08 06:41:21;;;;;;;0.60;0.60;;;-0.50;99.90;;;;;;5056899;28;21223;-71
2022/12/08 06:43:48;;;;;;;0.77;0.77;;;-1.00;99.90;;;;;;5056142;28;20284;-72
2022/12/08 06:46:18;;;;;;;0.57;0.57;;;-1.00;99.90;;;;;;5057583;28;20216;-71
2022/12/08 06:48:45;;;;;;;0.60;0.60;;;-1.10;99.90;;;;;;5051501;28;20199;-71
2022/12/08 06:51:14;;;;;;;0.50;0.50;;;-1.10;99.90;;;;;;5064414;28;20196;-71
2022/12/08 06:53:42;;;;;;;0.73;0.73;;;-1.10;99.90;;;;;;5058272;28;20228;-70
2022/12/08 06:56:10;;;;;;;1.67;1.58;;;-1.10;99.90;;;;;;5051699;28;20209;-70
2022/12/08 06:58:37;;;;;;;1.67;1.63;;;-1.10;99.90;;;;;;5051921;28;20234;-70
2022/12/08 07:01:06;;;;;;;0.75;0.75;;;-1.20;99.90;;;;;;5057329;28;20196;-71
2022/12/08 07:03:34;;;;;;;4.10;2.00;;;-0.70;99.90;;;;;;5055087;28;20208;-70
2022/12/08 07:06:01;;;;;;;1.63;1.55;;;-1.30;99.90;;;;;;5065027;28;20282;-72
2022/12/08 07:08:28;;;;;;;0.50;0.50;;;-1.30;99.90;;;;;;5058122;28;20359;-71
2022/12/08 07:10:54;;;;;;;1.10;1.08;;;-1.30;99.90;;;;;;5054048;28;20204;-71
2022/12/08 07:13:21;;;;;;;1.33;1.23;;;-1.30;99.90;;;;;;5052595;28;20219;-71
2022/12/08 07:15:49;;;;;;;0.95;0.95;;;-1.40;99.90;;;;;;5056858;28;20202;-73
2022/12/08 07:18:15;;;;;;;2.17;1.90;;;-1.40;99.90;;;;;;5058995;28;20290;-72
2022/12/08 07:20:44;;;;;;;34.95;3.17;;;-1.40;99.90;;;;;;5055874;28;20622;-72
2022/12/08 07:23:13;;;;;;;1.58;1.50;;;-1.30;99.90;;;;;;5048604;28;20196;-74
2022/12/08 07:25:39;;;;;;;1.13;1.08;;;-1.40;99.90;;;;;;5048973;28;20254;-72
2022/12/08 07:28:10;;;;;;;1.75;1.60;;;-1.30;99.90;;;;;;5046783;28;20207;-72
2022/12/08 07:30:37;;;;;;;3.47;2.60;;;-1.40;99.90;;;;;;5046839;28;20212;-71
2022/12/08 07:33:05;;;;;;;1.55;1.10;;;-1.40;99.90;;;;;;5048485;28;20226;-71
2022/12/08 07:35:38;;;;;;;1.10;1.08;;;-1.30;99.90;;;;;;5047195;28;20207;-73
2022/12/08 07:38:12;;;;;;;4.13;1.63;;;-1.30;99.90;;;;;;5055286;28;20203;-74
2022/12/08 07:48:12;;;;;;;0.60;0.60;;;-1.20;99.90;;;;;;5094081;28;20209;-74
2022/12/08 07:51:20;;;;;;;0.45;0.45;;;-1.10;99.90;;;;;;5100306;28;20225;-74
2022/12/08 07:54:51;;;;;;;1.02;1.02;;;-1.00;99.90;;;;;;5091700;28;20248;-74
2022/12/08 07:58:14;;;;;;;4.72;2.97;;;-0.90;99.90;;;;;;5097471;28;20209;-74
2022/12/08 08:01:06;;;;;;;2.05;0.95;;;-0.80;99.90;;;;;;5087251;28;20206;-74
2022/12/08 08:03:50;;;;;;;0.68;0.65;;;-0.80;99.90;;;;;;5090842;28;20197;-74
2022/12/08 08:06:17;;;;;;;1.85;1.75;;;-0.80;99.90;;;;;;5092646;28;20235;-74
2022/12/08 08:08:44;;;;;;;0.82;0.82;;;-0.70;99.90;;;;;;5087292;28;20612;-72
2022/12/08 08:11:19;;;;;;;1.63;1.48;;;-0.60;99.90;;;;;;5091296;28;20208;-73
2022/12/08 08:14:07;;;;;;;2.28;1.60;;;-0.60;99.90;;;;;;5092022;28;20326;-74
2022/12/08 08:16:58;;;;;;;0.82;0.82;;;-0.60;99.90;;;;;;5095007;28;20211;-76
2022/12/08 08:19:26;;;;;;;2.05;1.95;;;-0.50;99.90;;;;;;5097130;28;20199;-71
2022/12/08 08:21:53;;;;;;;1.95;1.50;;;-0.40;99.90;;;;;;5090411;28;20208;-71
2022/12/08 08:24:21;;;;;;;2.25;1.98;;;-0.20;99.90;;;;;;5087227;28;20249;-71
2022/12/08 08:26:47;;;;;;;1.27;1.27;;;-0.20;99.90;;;;;;5097157;28;20297;-73
2022/12/08 08:29:14;;;;;;;3.72;1.77;;;-0.20;99.90;;;;;;5097986;28;20191;-72
2022/12/08 08:31:42;;;;;;;1.35;1.25;;;0.00;99.90;;;;;;5095806;28;20210;-71
2022/12/08 08:34:10;;;;;;;0.95;0.95;;;0.10;99.90;;;;;;5087996;28;20216;-71
2022/12/08 08:36:38;;;;;;;1.65;1.13;;;0.20;99.90;;;;;;5091195;28;20211;-71
2022/12/08 08:39:05;;;;;;;2.72;1.90;;;0.20;99.90;;;;;;5090616;28;20194;-71
2022/12/08 08:41:32;;;;;;;1.67;1.55;;;0.30;99.90;;;;;;5092269;28;20193;-71
2022/12/08 08:43:59;;;;;;;0.47;0.47;;;0.40;99.90;;;;;;5087710;28;20204;-71
2022/12/08 08:46:26;;;;;;;5.30;2.63;;;0.40;99.90;;;;;;5087960;28;20213;-71
2022/12/08 08:48:52;;;;;;;0.75;0.75;;;0.50;99.90;;;;;;5086082;28;20202;-71
2022/12/08 08:51:21;;;;;;;2.13;1.83;;;0.50;99.90;;;;;;5088692;28;20202;-71
2022/12/08 08:53:47;;;;;;;1.20;1.00;;;0.60;99.90;;;;;;5087855;28;20237;-71
2022/12/08 08:56:18;;;;;;;1.85;1.45;;;0.60;99.90;;;;;;5088359;28;20563;-71
2022/12/08 08:58:47;;;;;;;3.65;3.33;;;0.70;99.90;;;;;;5085735;28;20197;-73
2022/12/08 09:01:16;;;;;;;1.95;0.82;;;0.80;99.90;;;;;;5088099;28;20248;-72
2022/12/08 09:03:43;;;;;;;1.05;1.05;;;0.90;99.90;;;;;;5094286;28;20234;-71
2022/12/08 09:06:10;;;;;;;1.40;1.30;;;0.90;99.90;;;;;;5092323;28;20202;-71
2022/12/08 09:08:38;;;;;;;1.30;1.25;;;0.90;99.90;;;;;;5089912;28;20292;-72
2022/12/08 09:11:05;;;;;;;1.42;1.08;;;0.60;99.90;;;;;;5092521;28;20257;-71
2022/12/08 09:13:33;;;;;;;0.70;0.70;;;1.00;99.90;;;;;;5097551;28;20752;-71
2022/12/08 09:16:01;;;;;;;1.95;0.77;;;1.10;99.90;;;;;;5097664;28;20471;-71
2022/12/08 09:18:28;;;;;;;1.10;1.00;;;1.10;99.90;;;;;;5093258;28;20211;-71
2022/12/08 09:20:56;;;;;;;2.67;2.47;;;1.10;99.90;;;;;;5094832;28;20251;-71
2022/12/08 09:23:22;;;;;;;1.10;0.85;;;1.20;99.90;;;;;;5095364;28;20206;-71
2022/12/08 09:25:51;;;;;;;1.83;1.45;;;1.30;99.90;;;;;;5097338;28;20199;-71
2022/12/08 09:28:18;;;;;;;0.65;0.65;;;1.30;99.90;;;;;;5092103;28;20277;-72
2022/12/08 09:30:45;;;;;;;0.70;0.70;;;1.30;99.90;;;;;;5097792;28;20221;-71
2022/12/08 09:33:12;;;;;;;0.35;0.35;;;1.40;99.90;;;;;;5092129;28;20210;-71
2022/12/08 09:35:39;;;;;;;0.68;0.68;;;1.40;99.90;;;;;;5095175;28;20198;-70
2022/12/08 09:38:06;;;;;;;3.03;1.02;;;1.50;99.90;;;;;;5092757;28;20197;-70
2022/12/08 09:40:42;;;;;;;1.90;1.02;;;1.50;99.90;;;;;;5093787;28;20244;-71
2022/12/08 09:43:24;;;;;;;1.25;0.93;;;1.50;99.90;;;;;;5090363;28;20190;-69
2022/12/08 09:45:51;;;;;;;2.70;2.45;;;1.60;99.90;;;;;;5092201;28;20208;-72
2022/12/08 09:48:23;;;;;;;0.50;0.50;;;1.50;99.90;;;;;;5095819;28;20572;-69
2022/12/08 09:50:54;;;;;;;0.68;0.68;;;1.40;99.90;;;;;;5092388;28;20194;-71
2022/12/08 09:53:25;;;;;;;1.88;1.35;;;1.50;99.90;;;;;;5087301;28;20708;-69
2022/12/08 09:55:55;;;;;;;3.92;1.50;;;1.50;99.90;;;;;;5093595;28;20194;-71
2022/12/08 09:58:29;;;;;;;1.25;1.20;;;1.50;99.90;;;;;;5086141;28;20289;-70
2022/12/08 10:00:56;;;;;;;2.33;2.13;;;1.60;99.90;;;;;;5091508;28;20190;-69
2022/12/08 10:03:27;;;;;;;2.75;1.02;;;1.70;99.90;;;;;;5090054;28;20201;-71
2022/12/08 10:05:58;;;;;;;0.90;0.90;;;1.70;99.90;;;;;;5089724;28;20182;-70
2022/12/08 10:08:30;;;;;;;13.13;2.13;;;1.70;99.90;;;;;;5093467;28;20304;-69
2022/12/08 10:10:58;;;;;;;0.80;0.70;;;1.70;99.90;;;;;;5087905;28;20193;-70
2022/12/08 10:13:37;;;;;;;2.17;2.05;;;1.80;99.90;;;;;;5082319;28;20235;-69
2022/12/08 10:16:14;;;;;;;1.95;0.73;;;1.70;99.90;;;;;;5079139;28;20572;-70
2022/12/08 10:18:41;;;;;;;0.88;0.77;;;1.80;99.90;;;;;;5081172;28;20206;-69
2022/12/08 10:21:16;;;;;;;1.30;1.20;;;1.70;99.90;;;;;;5084051;28;20289;-72
2022/12/08 10:23:47;;;;;;;3.42;1.70;;;1.70;99.90;;;;;;5078017;28;20552;-69
2022/12/08 10:26:16;;;;;;;4.60;1.05;;;1.70;99.90;;;;;;5083373;28;20636;-69
2022/12/08 10:28:45;;;;;;;0.68;0.68;;;1.80;99.90;;;;;;5085229;28;20195;-69
2022/12/08 10:31:16;;;;;;;0.43;0.43;;;1.80;99.90;;;;;;5085395;28;20691;-70
2022/12/08 10:33:44;;;;;;;1.45;1.17;;;1.90;99.90;;;;;;5085663;28;20511;-70
2022/12/08 10:36:12;;;;;;;1.45;1.35;;;1.80;99.90;;;;;;5083708;28;20277;-70
2022/12/08 10:38:40;;;;;;;4.72;3.53;;;1.80;99.90;;;;;;5076517;28;20299;-70
2022/12/08 10:41:12;;;;;;;0.60;0.60;;;1.80;99.90;;;;;;5079017;28;20188;-72
2022/12/08 10:43:46;;;;;;;1.80;1.40;;;1.70;99.90;;;;;;5083112;28;20289;-71
2022/12/08 10:46:17;;;;;;;2.15;1.40;;;1.70;99.90;;;;;;5085219;28;20191;-70
2022/12/08 10:48:52;;;;;;;2.35;1.38;;;1.80;99.90;;;;;;5082146;28;20602;-69
2022/12/08 10:51:30;;;;;;;1.50;1.08;;;1.80;99.90;;;;;;5080326;28;20221;-71
2022/12/08 10:53:57;;;;;;;2.72;1.75;;;1.90;99.90;;;;;;5087581;28;20320;-69
2022/12/08 10:56:27;;;;;;;0.30;0.20;;;2.00;99.90;;;;;;5082257;28;20313;-70
2022/12/08 10:59:12;;;;;;;1.98;1.88;;;2.10;99.90;;;;;;5079054;28;20197;-70
2022/12/08 11:01:40;;;;;;;3.15;2.58;;;2.20;99.70;;;;;;5074351;28;20198;-70
2022/12/08 11:04:14;;;;;;;1.30;1.17;;;2.40;99.40;;;;;;5100142;28;20551;-71
2022/12/08 11:06:44;;;;;;;0.90;0.88;;;2.40;99.00;;;;;;5089417;28;20198;-73
2022/12/08 11:09:36;;;;;;;5.93;2.00;;;2.40;99.00;;;;;;5089248;28;20203;-73
2022/12/08 11:12:08;;;;;;;1.60;0.85;;;2.50;99.40;;;;;;5087304;28;20221;-72
2022/12/08 11:14:49;;;;;;;2.05;1.95;;;2.40;99.00;;;;;;5089158;28;20226;-72
2022/12/08 11:17:17;;;;;;;1.95;0.70;;;2.50;98.90;;;;;;5089208;28;20660;-72
2022/12/08 11:19:46;;;;;;;0.77;0.77;;;2.60;98.60;;;;;;5088430;28;21037;-72
2022/12/08 11:22:39;;;;;;;0.57;0.57;;;2.60;98.60;;;;;;5088503;28;20198;-74
2022/12/08 11:25:11;;;;;;;4.00;2.37;;;2.70;99.90;;;;;;5069642;28;20880;-72
2022/12/08 11:27:42;;;;;;;2.40;1.50;;;2.70;98.60;;;;;;5085986;28;20663;-72
2022/12/08 11:30:16;;;;;;;0.88;0.63;;;4.20;99.20;;;;;;5085105;28;20207;-72
2022/12/08 11:32:45;;;;;;;1.33;1.17;;;2.60;98.60;;;;;;5088236;28;20237;-73
2022/12/08 11:35:21;;;;;;;0.93;0.82;;;2.60;98.50;;;;;;5089203;28;20283;-72
2022/12/08 11:37:48;;;;;;;1.25;1.13;;;2.60;98.60;;;;;;5085561;28;20221;-72
2022/12/08 11:40:33;;;;;;;1.40;0.95;;;2.80;99.00;;;;;;5089419;28;20210;-74
2022/12/08 11:43:07;;;;;;;0.90;0.90;;;2.80;99.00;;;;;;5087706;28;20222;-72
2022/12/08 11:45:36;;;;;;;2.95;1.13;;;2.90;98.40;;;;;;5087908;28;20195;-72
2022/12/08 11:48:11;;;;;;;2.70;1.70;;;2.90;98.00;;;;;;5089237;28;20191;-71
2022/12/08 11:50:43;;;;;;;2.90;1.10;;;3.10;98.30;;;;;;5088568;28;20204;-71
2022/12/08 11:53:18;;;;;;;0.63;0.63;;;3.20;98.10;;;;;;5089437;28;20213;-70
2022/12/08 11:56:04;;;;;;;1.65;1.55;;;3.40;97.90;;;;;;5087831;28;20202;-71
2022/12/08 11:58:39;;;;;;;1.75;0.88;;;3.50;99.60;;;;;;5083564;28;20244;-71
2022/12/08 12:01:16;;;;;;;1.20;0.63;;;3.40;96.20;;;;;;5091205;28;20214;-73
2022/12/08 12:03:47;;;;;;;0.55;0.40;;;3.60;96.80;;;;;;5087067;28;20218;-71
2022/12/08 12:06:40;;;;;;;1.33;1.23;;;3.80;96.50;;;;;;5084957;28;20213;-71
2022/12/08 12:09:15;;;;;;;0.50;0.40;;;3.90;96.20;;;;;;5087469;28;20225;-71
2022/12/08 12:14:55;;;;;;;3.40;0.85;;;3.80;95.60;;;;;;5082574;28;20238;-71
2022/12/08 12:17:38;;;;;;;0.95;0.95;;;3.70;95.60;;;;;;5087481;28;20199;-71
2022/12/08 12:20:15;;;;;;;0.60;0.60;;;3.80;95.70;;;;;;5089343;28;20589;-71
2022/12/08 12:22:44;;;;;;;1.38;1.27;;;3.90;95.20;;;;;;5087502;28;20198;-71
2022/12/08 12:25:19;;;;;;;1.52;0.80;;;4.00;95.10;;;;;;5088727;28;20286;-73
2022/12/08 12:27:48;;;;;;;1.10;0.75;;;4.10;94.90;;;;;;5087499;28;20277;-68
2022/12/08 12:30:22;;;;;;;0.93;0.93;;;4.10;95.00;;;;;;5088315;28;20209;-68
2022/12/08 12:32:54;;;;;;;1.20;0.70;;;4.20;95.10;;;;;;5085405;28;20308;-70
2022/12/08 12:35:41;;;;;;;0.93;0.93;;;4.10;94.80;;;;;;5084809;27;20742;-71
2022/12/08 13:37:17;;;;;;;4.07;1.58;;;3.80;94.30;;;;;;5078839;27;21230;-71
2022/12/08 13:40:08;;;;;;;1.98;0.98;;;3.80;93.80;;;;;;5083213;28;20589;-70
2022/12/08 13:42:42;;;;;;;0.45;0.38;;;3.80;93.90;;;;;;5086335;28;20190;-69
2022/12/08 13:45:19;;;;;;;1.63;0.68;;;3.80;94.60;;;;;;5085282;28;20219;-69
2022/12/08 13:47:53;;;;;;;0.80;0.50;;;3.80;94.60;;;;;;5092417;28;20204;-69
2022/12/08 13:50:24;;;;;;;0.65;0.65;;;3.80;94.40;;;;;;5090937;28;20731;-69
2022/12/08 13:52:57;;;;;;;1.00;0.50;;;3.90;94.30;;;;;;5090568;28;21205;-69
2022/12/08 13:55:28;;;;;;;0.75;0.75;;;3.90;93.70;;;;;;5085470;28;20229;-69
2022/12/08 13:57:56;;;;;;;1.67;0.73;;;3.90;93.50;;;;;;5087882;28;20198;-69
2022/12/08 14:00:26;;;;;;;0.60;0.60;;;3.80;94.10;;;;;;5100186;28;20201;-71
2022/12/08 14:02:57;;;;;;;1.25;1.17;;;3.70;93.70;;;;;;5086731;28;20657;-71
2022/12/08 14:05:26;;;;;;;0.75;0.75;;;3.70;94.50;;;;;;5070786;28;20215;-71
2022/12/08 14:07:56;;;;;;;1.85;1.25;;;3.30;96.10;;;;;;5080438;28;20273;-72
2022/12/08 14:10:26;;;;;;;1.55;1.10;;;3.60;94.90;;;;;;5075100;28;20274;-71
2022/12/08 14:12:56;;;;;;;1.02;0.80;;;3.60;94.60;;;;;;5085193;28;20191;-71
2022/12/08 14:15:26;;;;;;;1.75;1.65;;;3.60;94.30;;;;;;5077337;28;20249;-72
2022/12/08 14:17:54;;;;;;;1.27;1.08;;;3.50;94.20;;;;;;5085194;28;20203;-71
2022/12/08 14:20:24;;;;;;;1.10;0.85;;;3.50;94.30;;;;;;5091802;28;20186;-72
2022/12/08 14:22:52;;;;;;;0.95;0.80;;;3.50;94.30;;;;;;5096225;28;20209;-71
2022/12/08 14:25:21;;;;;;;1.13;1.13;;;3.40;94.70;;;;;;5086618;28;20601;-72
2022/12/08 14:27:48;;;;;;;1.48;1.38;;;3.50;94.80;;;;;;5092071;28;20198;-72
2022/12/08 14:30:21;;;;;;;1.67;1.58;;;3.40;94.10;;;;;;5097707;28;20202;-71